Time;durP1;ratioP1;P1;durP2;ratioP2;P2;SDS_P1;SDS_P2;PMS_P1;PMS_P2;Temp;Humidity;BMP_temperature;BMP_pressure;BME280_temperature;BME280_humidity;BME280_pressure;Samples;Min_cycle;Max_cycle;Signal;HPM_P1;HPM_P2
2024/02/13 00:03:56;;;;;;;137.27;128.13;;;5.40;99.90;;;;;;12479516;28;20095;-36
2024/02/13 00:09:58;;;;;;;139.43;130.18;;;5.50;99.90;;;;;;12478107;28;20041;-35
2024/02/13 00:16:00;;;;;;;143.98;134.63;;;5.50;99.90;;;;;;12494311;28;20148;-35
2024/02/13 00:22:02;;;;;;;138.68;129.20;;;5.50;99.90;;;;;;12475304;28;20053;-35
2024/02/13 00:28:05;;;;;;;140.57;131.40;;;5.50;99.90;;;;;;12468083;28;20434;-36
2024/02/13 00:34:07;;;;;;;143.18;133.57;;;5.50;99.90;;;;;;12452932;28;20054;-36
2024/02/13 00:40:11;;;;;;;145.55;135.85;;;5.40;99.90;;;;;;12475891;28;20058;-35
2024/02/13 00:46:13;;;;;;;139.10;129.65;;;5.40;99.90;;;;;;12434735;28;20085;-36
2024/02/13 00:52:15;;;;;;;138.57;129.18;;;5.30;99.90;;;;;;12451092;28;20054;-36
2024/02/13 00:58:17;;;;;;;138.70;129.60;;;5.30;99.90;;;;;;12471092;28;20077;-36
2024/02/13 01:04:19;;;;;;;140.10;130.40;;;5.20;99.90;;;;;;12473296;28;20052;-36
2024/02/13 01:10:21;;;;;;;145.60;135.27;;;5.10;99.90;;;;;;12458859;28;20053;-35
2024/02/13 01:16:23;;;;;;;160.57;149.48;;;4.90;99.90;;;;;;12471953;28;20140;-35
2024/02/13 01:22:25;;;;;;;156.80;145.93;;;4.90;99.90;;;;;;12489035;28;20145;-35
2024/02/13 01:28:28;;;;;;;151.07;140.65;;;4.60;99.90;;;;;;12498723;28;20175;-36
2024/02/13 01:34:30;;;;;;;150.80;140.38;;;4.50;99.90;;;;;;12478066;28;20179;-36
2024/02/13 01:40:32;;;;;;;142.90;133.00;;;4.50;99.90;;;;;;12483928;28;20053;-35
2024/02/13 01:46:34;;;;;;;145.05;135.05;;;4.50;99.90;;;;;;12480508;28;20953;-35
2024/02/13 01:52:37;;;;;;;142.00;132.20;;;4.50;99.90;;;;;;12484310;28;20050;-35
2024/02/13 01:58:39;;;;;;;130.43;121.53;;;4.50;99.90;;;;;;12489018;28;20057;-36
2024/02/13 02:04:41;;;;;;;135.85;126.60;;;4.50;99.90;;;;;;12485964;28;20064;-36
2024/02/13 02:10:44;;;;;;;138.65;129.10;;;4.50;99.90;;;;;;12475208;28;20053;-36
2024/02/13 02:16:46;;;;;;;139.68;130.13;;;4.50;99.90;;;;;;12490750;28;20050;-35
2024/02/13 02:22:49;;;;;;;140.50;130.93;;;4.50;99.90;;;;;;12490234;28;20517;-36
2024/02/13 02:28:50;;;;;;;136.32;127.07;;;4.40;99.90;;;;;;12491398;28;20057;-35
2024/02/13 02:34:52;;;;;;;137.70;128.43;;;4.50;99.90;;;;;;12496225;28;20144;-35
2024/02/13 02:40:54;;;;;;;142.27;132.68;;;4.50;99.90;;;;;;12481923;28;20049;-36
2024/02/13 02:46:56;;;;;;;140.88;131.48;;;4.50;99.90;;;;;;12486058;28;20088;-36
2024/02/13 02:52:58;;;;;;;141.63;131.93;;;4.50;99.90;;;;;;12492505;28;20061;-36
2024/02/13 02:59:00;;;;;;;143.25;133.48;;;4.50;99.90;;;;;;12497804;28;20080;-35
2024/02/13 03:05:03;;;;;;;141.73;131.60;;;4.50;99.90;;;;;;12484107;28;20671;-36
2024/02/13 03:11:05;;;;;;;139.15;129.32;;;4.40;99.90;;;;;;12478321;28;20060;-36
2024/02/13 03:17:10;;;;;;;149.02;138.75;;;4.40;99.90;;;;;;12483311;28;20537;-35
2024/02/13 03:23:12;;;;;;;144.60;133.85;;;4.40;99.90;;;;;;12500721;28;20132;-35
2024/02/13 03:29:14;;;;;;;142.35;131.75;;;4.30;99.90;;;;;;12492424;28;20060;-35
2024/02/13 03:35:15;;;;;;;146.35;135.52;;;4.30;99.90;;;;;;12473785;28;20054;-35
2024/02/13 03:41:17;;;;;;;145.73;134.85;;;4.20;99.90;;;;;;12485097;28;20073;-36
2024/02/13 03:47:19;;;;;;;148.13;137.02;;;4.20;99.90;;;;;;12471226;28;20060;-35
2024/02/13 03:53:21;;;;;;;143.77;133.27;;;4.10;99.90;;;;;;12476692;28;20057;-35
2024/02/13 03:59:23;;;;;;;154.30;143.00;;;4.00;99.90;;;;;;12475359;28;20049;-35
2024/02/13 04:05:25;;;;;;;142.15;131.27;;;4.00;99.90;;;;;;12457830;28;20053;-35
2024/02/13 04:11:27;;;;;;;141.68;130.77;;;4.00;99.90;;;;;;12480931;28;20053;-35
2024/02/13 04:17:29;;;;;;;151.10;139.40;;;4.10;99.90;;;;;;12463011;28;20093;-36
2024/02/13 04:23:32;;;;;;;150.30;139.13;;;4.10;99.90;;;;;;12460533;28;20425;-35
2024/02/13 04:29:34;;;;;;;155.77;143.88;;;4.20;99.90;;;;;;12467662;28;20083;-36
2024/02/13 04:35:36;;;;;;;154.27;142.05;;;4.20;99.90;;;;;;12464212;28;20057;-35
2024/02/13 04:41:42;;;;;;;156.02;143.52;;;4.10;99.90;;;;;;12450042;28;20064;-36
2024/02/13 04:47:46;;;;;;;155.45;143.57;;;4.10;99.90;;;;;;12485994;28;20056;-35
2024/02/13 04:53:48;;;;;;;151.40;139.52;;;4.10;99.90;;;;;;12489041;28;20508;-35
2024/02/13 04:59:51;;;;;;;148.90;137.52;;;4.10;99.90;;;;;;12505809;28;20505;-35
2024/02/13 05:12:14;;;;;;;147.80;135.30;;;4.10;99.90;;;;;;12484917;28;20096;-36
2024/02/13 05:18:17;;;;;;;145.88;134.27;;;4.00;99.90;;;;;;12491424;28;20501;-35
2024/02/13 05:24:19;;;;;;;142.35;131.40;;;4.00;99.90;;;;;;12483051;28;20081;-36
2024/02/13 05:30:22;;;;;;;136.95;125.97;;;4.00;99.90;;;;;;12462546;28;20561;-35
2024/02/13 05:36:25;;;;;;;139.65;128.50;;;3.90;99.90;;;;;;12480909;28;20417;-36
2024/02/13 05:42:28;;;;;;;135.00;123.85;;;3.90;99.90;;;;;;12475719;28;20061;-35
2024/02/13 05:48:29;;;;;;;137.60;126.80;;;3.90;99.90;;;;;;12476530;28;20056;-35
2024/02/13 05:54:33;;;;;;;132.27;121.60;;;3.90;99.90;;;;;;12462925;28;20055;-35
2024/02/13 06:00:35;;;;;;;132.80;121.87;;;3.90;99.90;;;;;;12473633;28;20084;-35
2024/02/13 06:06:42;;;;;;;130.00;119.18;;;3.90;99.90;;;;;;12451431;28;20050;-36
2024/02/13 06:12:45;;;;;;;126.22;115.72;;;3.80;99.90;;;;;;12447767;28;20054;-35
2024/02/13 06:18:47;;;;;;;124.40;114.00;;;3.80;99.90;;;;;;12457912;28;20057;-35
2024/02/13 06:24:50;;;;;;;126.30;116.05;;;3.90;99.90;;;;;;12474915;28;20103;-35
2024/02/13 06:30:52;;;;;;;116.75;107.28;;;3.80;99.90;;;;;;12474008;28;20054;-35
2024/02/13 06:36:53;;;;;;;112.45;103.03;;;3.90;99.90;;;;;;12488280;28;20124;-35
2024/02/13 06:42:56;;;;;;;118.18;109.00;;;3.90;99.90;;;;;;12466315;28;20429;-35
2024/02/13 06:48:58;;;;;;;116.57;107.50;;;3.90;99.90;;;;;;12481261;28;20052;-35
2024/02/13 06:55:00;;;;;;;125.03;114.28;;;4.00;99.90;;;;;;12471517;28;20065;-36
2024/02/13 07:01:02;;;;;;;131.80;121.82;;;4.00;99.90;;;;;;12471264;28;21522;-35
2024/02/13 07:07:05;;;;;;;126.30;116.35;;;4.00;99.90;;;;;;12461923;28;20482;-36
2024/02/13 07:13:28;;;;;;;124.28;114.50;;;4.10;99.90;;;;;;12477000;28;20580;-35
2024/02/13 07:19:30;;;;;;;123.40;113.47;;;4.10;99.90;;;;;;12503556;28;20144;-36
2024/02/13 07:25:34;;;;;;;120.28;111.22;;;4.20;99.90;;;;;;12477090;28;20107;-36
2024/02/13 07:31:36;;;;;;;126.07;116.27;;;4.20;99.90;;;;;;12504626;28;20060;-35
2024/02/13 07:37:38;;;;;;;133.52;123.57;;;4.20;99.90;;;;;;12491304;28;20081;-35
2024/02/13 07:43:40;;;;;;;129.60;119.65;;;4.20;99.90;;;;;;12481773;28;20050;-35
2024/02/13 07:49:42;;;;;;;139.02;128.35;;;4.30;99.90;;;;;;12488924;28;20060;-36
2024/02/13 07:55:44;;;;;;;140.73;129.88;;;4.30;99.90;;;;;;12486395;28;20194;-36
2024/02/13 08:01:46;;;;;;;139.18;128.82;;;4.40;99.90;;;;;;12481613;28;20053;-35
2024/02/13 08:07:48;;;;;;;155.23;143.80;;;4.50;99.90;;;;;;12487096;28;20588;-35
2024/02/13 08:13:50;;;;;;;155.30;143.57;;;4.60;99.90;;;;;;12462003;28;20096;-36
2024/02/13 08:19:51;;;;;;;148.32;136.93;;;4.70;99.90;;;;;;12467262;28;20076;-35
2024/02/13 08:25:53;;;;;;;157.45;144.75;;;4.70;99.90;;;;;;12482975;28;20060;-35
2024/02/13 08:31:55;;;;;;;151.93;139.95;;;4.70;99.90;;;;;;12464153;28;21312;-35
2024/02/13 08:37:57;;;;;;;144.80;133.23;;;4.70;99.90;;;;;;12451815;28;20537;-36
2024/02/13 08:43:59;;;;;;;147.20;135.82;;;4.70;99.90;;;;;;12436726;28;20053;-35
2024/02/13 08:50:02;;;;;;;145.85;134.45;;;4.70;99.90;;;;;;12514370;28;20481;-35
2024/02/13 08:56:05;;;;;;;149.27;138.15;;;4.80;99.90;;;;;;12498506;28;20505;-36
2024/02/13 09:02:08;;;;;;;154.27;142.40;;;4.90;99.90;;;;;;12495251;28;20060;-36
2024/02/13 09:08:10;;;;;;;154.50;142.23;;;4.90;99.90;;;;;;12513197;28;20053;-35
2024/02/13 09:14:13;;;;;;;161.70;149.75;;;5.00;99.90;;;;;;12527933;28;20694;-35
2024/02/13 09:20:15;;;;;;;161.63;149.20;;;5.10;99.90;;;;;;12472739;28;20061;-36
2024/02/13 09:26:17;;;;;;;170.80;157.98;;;5.20;99.90;;;;;;12457144;28;20054;-36
2024/02/13 09:32:19;;;;;;;161.77;149.43;;;5.30;99.90;;;;;;12464265;28;20429;-36
2024/02/13 09:38:21;;;;;;;163.70;151.57;;;5.40;99.90;;;;;;12469283;28;20076;-35
2024/02/13 09:44:24;;;;;;;173.88;161.20;;;5.50;99.90;;;;;;12477821;28;20395;-36
2024/02/13 09:50:34;;;;;;;169.55;156.75;;;5.60;99.90;;;;;;12462961;28;20095;-36
2024/02/13 09:56:38;;;;;;;159.20;147.05;;;5.60;99.90;;;;;;12487468;28;20064;-35
2024/02/13 10:02:40;;;;;;;157.30;145.40;;;5.60;99.90;;;;;;12479917;28;20127;-36
2024/02/13 10:08:42;;;;;;;191.98;177.95;;;5.60;99.90;;;;;;12484408;28;20053;-36
2024/02/13 10:14:44;;;;;;;221.52;206.02;;;5.80;99.90;;;;;;12487210;28;20049;-36
2024/02/13 10:20:46;;;;;;;230.77;215.23;;;6.20;99.90;;;;;;12474567;28;20045;-36
2024/02/13 10:26:48;;;;;;;199.30;185.38;;;6.40;99.90;;;;;;12504849;28;20128;-36
2024/02/13 10:32:50;;;;;;;186.93;174.02;;;6.40;99.90;;;;;;12435785;28;20065;-36
2024/02/13 10:39:00;;;;;;;170.65;158.50;;;6.50;99.90;;;;;;12433438;28;20136;-36
2024/02/13 10:45:06;;;;;;;177.32;165.30;;;6.60;99.90;;;;;;12494248;28;20103;-36
2024/02/13 10:51:08;;;;;;;198.82;185.27;;;6.90;99.90;;;;;;12503666;28;20132;-36
2024/02/13 10:57:13;;;;;;;184.60;172.73;;;7.10;99.90;;;;;;12436641;28;20081;-36
2024/02/13 11:03:16;;;;;;;159.38;148.82;;;7.40;99.90;;;;;;12440600;28;20057;-36
2024/02/13 11:09:18;;;;;;;157.50;146.95;;;7.40;99.90;;;;;;12437667;28;20187;-36
2024/02/13 11:15:20;;;;;;;158.90;148.93;;;7.20;99.90;;;;;;12444362;28;20068;-36
2024/02/13 11:21:25;;;;;;;158.70;149.20;;;7.20;99.90;;;;;;12441409;28;20084;-36
2024/02/13 11:27:27;;;;;;;154.38;145.27;;;7.40;99.90;;;;;;12419927;28;20077;-36
2024/02/13 11:33:32;;;;;;;158.50;149.10;;;7.40;99.90;;;;;;12447709;28;20065;-36
2024/02/13 11:39:34;;;;;;;143.60;135.25;;;7.50;99.90;;;;;;12428037;28;20140;-36
2024/02/13 11:45:35;;;;;;;126.57;119.47;;;7.40;99.90;;;;;;12456091;28;20046;-35
2024/02/13 11:51:38;;;;;;;130.15;122.63;;;7.40;99.90;;;;;;12441636;28;20141;-36
2024/02/13 11:57:44;;;;;;;129.95;122.43;;;7.40;99.90;;;;;;12405529;28;20050;-36
2024/02/13 12:03:46;;;;;;;126.03;119.05;;;7.30;99.90;;;;;;12439257;28;20064;-36
2024/02/13 12:09:54;;;;;;;102.97;97.20;;;7.40;99.90;;;;;;12432347;28;20057;-36
2024/02/13 12:15:58;;;;;;;128.10;121.20;;;7.50;99.90;;;;;;12415760;28;20057;-36
2024/02/13 12:22:16;;;;;;;103.97;98.43;;;7.40;99.90;;;;;;12419219;28;20192;-36
2024/02/13 12:28:18;;;;;;;80.35;76.15;;;7.60;99.90;;;;;;12428126;28;20041;-36
2024/02/13 12:34:23;;;;;;;119.75;113.18;;;7.80;99.90;;;;;;12438529;28;20414;-36
2024/02/13 12:40:26;;;;;;;107.68;102.05;;;7.50;99.90;;;;;;12438872;28;20061;-36
2024/02/13 12:46:34;;;;;;;115.28;109.28;;;7.50;99.90;;;;;;12417753;28;20104;-36
2024/02/13 12:52:37;;;;;;;95.53;90.47;;;7.60;99.90;;;;;;12444285;28;20509;-37
2024/02/13 12:58:41;;;;;;;103.75;98.40;;;7.80;99.90;;;;;;12507400;28;20202;-36
2024/02/13 13:04:43;;;;;;;96.63;91.53;;;8.00;99.90;;;;;;12505081;28;20077;-36
2024/02/13 13:10:45;;;;;;;98.35;93.53;;;8.20;99.90;;;;;;12470318;28;20096;-36
2024/02/13 13:16:50;;;;;;;94.75;89.75;;;8.10;99.90;;;;;;12475055;28;20062;-36
2024/02/13 13:22:53;;;;;;;70.70;66.75;;;8.10;99.90;;;;;;12476225;28;20045;-36
2024/02/13 13:28:55;;;;;;;92.60;87.80;;;8.00;99.90;;;;;;12471966;28;20521;-36
2024/02/13 13:35:00;;;;;;;87.05;82.65;;;7.90;99.90;;;;;;12492066;28;20533;-36
2024/02/13 13:41:03;;;;;;;91.05;86.45;;;8.00;99.90;;;;;;12466239;28;20053;-36
2024/02/13 13:47:07;;;;;;;83.30;79.20;;;7.90;99.90;;;;;;12495031;28;20048;-36
2024/02/13 13:53:10;;;;;;;76.38;72.18;;;8.10;99.90;;;;;;12472043;28;20060;-36
2024/02/13 13:59:12;;;;;;;57.83;54.83;;;8.00;99.90;;;;;;12478509;28;20516;-36
2024/02/13 14:05:14;;;;;;;73.57;69.78;;;8.20;99.90;;;;;;12468879;28;20061;-36
2024/02/13 14:11:17;;;;;;;58.38;55.58;;;8.30;99.90;;;;;;12465507;28;20661;-36
2024/02/13 14:17:21;;;;;;;55.22;52.13;;;8.40;99.90;;;;;;12494356;28;20084;-36
2024/02/13 14:23:23;;;;;;;63.65;60.45;;;8.40;99.90;;;;;;12488113;28;20058;-36
2024/02/13 14:29:25;;;;;;;61.90;58.70;;;8.40;99.90;;;;;;12474306;28;20498;-36
2024/02/13 14:35:27;;;;;;;65.18;61.78;;;8.50;99.90;;;;;;12460531;28;20444;-35
2024/02/13 14:41:30;;;;;;;66.50;62.85;;;8.50;99.90;;;;;;12494961;28;20057;-36
2024/02/13 14:47:32;;;;;;;73.80;69.95;;;8.40;99.90;;;;;;12498371;28;20057;-36
2024/02/13 14:53:34;;;;;;;68.07;64.57;;;8.30;99.90;;;;;;12473160;28;20073;-36
2024/02/13 14:59:37;;;;;;;65.55;62.15;;;8.20;99.90;;;;;;12475991;28;20057;-36
2024/02/13 15:05:39;;;;;;;69.28;65.43;;;8.20;99.90;;;;;;12485921;28;20136;-36
2024/02/13 15:11:44;;;;;;;64.05;60.75;;;8.10;99.90;;;;;;12487573;28;20395;-35
2024/02/13 15:17:46;;;;;;;72.80;69.18;;;7.90;99.90;;;;;;12478687;28;20502;-35
2024/02/13 15:23:50;;;;;;;64.78;61.58;;;7.80;99.90;;;;;;12474228;28;20189;-35
2024/02/13 15:29:52;;;;;;;58.72;55.78;;;7.80;99.90;;;;;;12487108;28;20089;-36
2024/02/13 15:36:05;;;;;;;58.85;55.83;;;7.70;99.90;;;;;;12446755;28;20549;-36
2024/02/13 15:48:28;;;;;;;52.58;49.78;;;7.60;99.90;;;;;;12472946;28;20509;-35
2024/02/13 15:54:30;;;;;;;57.70;54.80;;;7.50;99.90;;;;;;12471064;28;20139;-35
2024/02/13 16:00:32;;;;;;;55.83;53.00;;;7.40;99.90;;;;;;12482558;28;20076;-35
2024/02/13 16:06:36;;;;;;;49.63;47.17;;;7.30;99.90;;;;;;12481009;28;20444;-36
2024/02/13 16:12:38;;;;;;;49.17;46.50;;;7.30;99.90;;;;;;12469289;28;20057;-35
2024/02/13 16:18:43;;;;;;;45.92;43.47;;;7.30;99.90;;;;;;12466270;28;20056;-36
2024/02/13 16:24:45;;;;;;;47.60;45.03;;;7.30;99.90;;;;;;12451224;28;20046;-36
2024/02/13 16:30:47;;;;;;;48.13;45.50;;;7.20;99.90;;;;;;12466398;28;20073;-35
2024/02/13 16:36:49;;;;;;;52.35;49.35;;;7.10;99.90;;;;;;12463647;28;20528;-35
2024/02/13 16:42:52;;;;;;;46.67;44.17;;;7.10;99.90;;;;;;12465387;28;20053;-36
2024/02/13 16:48:58;;;;;;;43.97;41.42;;;7.00;99.90;;;;;;12482757;28;20053;-36
2024/02/13 16:55:00;;;;;;;43.70;41.47;;;7.00;99.90;;;;;;12461583;28;20061;-35
2024/02/13 17:01:05;;;;;;;46.75;44.13;;;6.90;99.90;;;;;;12486571;28;20062;-35
2024/02/13 17:07:07;;;;;;;44.75;42.40;;;6.80;99.90;;;;;;12492017;28;20053;-36
2024/02/13 17:13:10;;;;;;;41.42;39.25;;;6.80;99.90;;;;;;12478059;28;20053;-36
2024/02/13 17:19:13;;;;;;;41.58;39.28;;;6.60;99.90;;;;;;12483418;28;20069;-36
2024/02/13 17:25:16;;;;;;;42.90;40.60;;;6.60;99.90;;;;;;12471038;28;20046;-37
2024/02/13 17:31:18;;;;;;;42.00;39.55;;;6.50;99.90;;;;;;12472335;28;20188;-36
2024/02/13 17:37:20;;;;;;;43.65;41.35;;;6.40;99.90;;;;;;12459568;28;20072;-36
2024/02/13 17:43:22;;;;;;;40.65;38.22;;;6.40;99.90;;;;;;12469209;28;20049;-35
2024/02/13 17:49:24;;;;;;;41.58;39.28;;;6.40;99.90;;;;;;12475735;28;20154;-36
2024/02/13 17:55:26;;;;;;;38.83;36.50;;;6.30;99.90;;;;;;12482393;28;20180;-35
2024/02/13 18:01:27;;;;;;;40.22;38.05;;;6.30;99.90;;;;;;12471088;28;20079;-36
2024/02/13 18:07:29;;;;;;;39.22;37.22;;;6.30;99.90;;;;;;12466416;28;20057;-35
2024/02/13 18:13:31;;;;;;;37.25;35.05;;;6.30;99.90;;;;;;12464721;28;20095;-36
2024/02/13 18:19:33;;;;;;;38.20;36.20;;;6.30;99.90;;;;;;12452422;28;20149;-36
2024/02/13 18:25:35;;;;;;;34.05;31.90;;;6.30;99.90;;;;;;12474910;28;20063;-36
2024/02/13 18:31:38;;;;;;;36.05;33.97;;;6.30;99.90;;;;;;12473900;28;20195;-36
2024/02/13 18:37:40;;;;;;;33.95;32.17;;;6.30;99.90;;;;;;12456053;28;20053;-36
2024/02/13 18:43:43;;;;;;;35.15;33.17;;;6.30;99.90;;;;;;12441456;28;20041;-35
2024/02/13 18:49:47;;;;;;;32.30;30.00;;;6.30;99.90;;;;;;12468619;28;20046;-36
2024/02/13 18:55:49;;;;;;;32.00;30.30;;;6.20;99.90;;;;;;12465808;28;20204;-35
2024/02/13 19:01:54;;;;;;;29.70;28.10;;;6.20;99.90;;;;;;12436518;28;20629;-35
2024/02/13 19:07:56;;;;;;;29.20;27.63;;;6.20;99.90;;;;;;12454326;28;20050;-36
2024/02/13 19:13:58;;;;;;;30.92;29.33;;;6.30;99.90;;;;;;12443888;28;20082;-35
2024/02/13 19:20:00;;;;;;;30.85;29.25;;;6.30;99.90;;;;;;12454009;28;20053;-36
2024/02/13 19:26:03;;;;;;;29.55;27.95;;;6.30;99.90;;;;;;12432541;28;20053;-36
2024/02/13 19:32:05;;;;;;;29.38;27.77;;;6.30;99.90;;;;;;12473712;28;20046;-35
2024/02/13 19:38:09;;;;;;;27.88;26.38;;;6.30;99.90;;;;;;12441915;28;20050;-35
2024/02/13 19:44:13;;;;;;;27.25;25.85;;;6.30;99.90;;;;;;12465895;28;20067;-35
2024/02/13 19:50:16;;;;;;;29.93;28.33;;;6.30;99.90;;;;;;12442729;28;20049;-36
2024/02/13 19:56:18;;;;;;;28.23;26.73;;;6.30;99.90;;;;;;12445656;28;20050;-36
2024/02/13 20:02:20;;;;;;;28.95;27.35;;;6.30;99.90;;;;;;12432890;28;20061;-35
2024/02/13 20:08:22;;;;;;;26.45;24.80;;;6.30;99.90;;;;;;12469630;28;20054;-36
2024/02/13 20:14:25;;;;;;;28.90;27.27;;;6.30;99.90;;;;;;12438130;28;20416;-35
2024/02/13 20:20:27;;;;;;;29.65;28.15;;;6.40;99.90;;;;;;12429371;28;20200;-35
2024/02/13 20:26:29;;;;;;;31.80;30.10;;;6.30;99.90;;;;;;12475257;28;20426;-35
2024/02/13 20:32:30;;;;;;;27.95;26.35;;;6.30;99.90;;;;;;12435957;28;20061;-36
2024/02/13 20:38:37;;;;;;;29.02;27.42;;;6.40;99.90;;;;;;12462209;28;20110;-36
2024/02/13 20:44:40;;;;;;;28.20;26.70;;;6.40;99.90;;;;;;12445464;28;20049;-36
2024/02/13 20:50:42;;;;;;;28.02;26.52;;;6.40;99.90;;;;;;12459706;28;20109;-36
2024/02/13 20:56:48;;;;;;;29.02;27.33;;;6.50;99.90;;;;;;12461884;28;20077;-35
2024/02/13 21:02:50;;;;;;;28.33;26.73;;;6.60;99.90;;;;;;12463483;28;20049;-35
2024/02/13 21:08:53;;;;;;;25.73;24.35;;;6.60;99.90;;;;;;12454578;28;20517;-35
2024/02/13 21:14:56;;;;;;;28.60;26.95;;;6.60;99.90;;;;;;12441776;28;20062;-35
2024/02/13 21:23:50;;;;;;;27.45;25.63;;;6.70;99.90;;;;;;12445778;28;20062;-36
2024/02/13 21:27:20;;;;;;;28.35;26.80;;;6.80;99.90;;;;;;12476587;28;20087;-36
2024/02/13 21:33:22;;;;;;;29.95;28.05;;;6.70;99.90;;;;;;12467793;28;20065;-36
2024/02/13 21:39:26;;;;;;;28.52;26.92;;;6.70;99.90;;;;;;12444605;28;20056;-36
2024/02/13 21:45:29;;;;;;;27.13;25.67;;;6.80;99.90;;;;;;12474454;28;20080;-36
2024/02/13 21:51:32;;;;;;;27.53;26.03;;;6.80;99.90;;;;;;12449094;28;20064;-36
2024/02/13 21:57:34;;;;;;;28.50;26.90;;;6.80;99.90;;;;;;12458763;28;20188;-35
2024/02/13 22:03:36;;;;;;;26.15;24.65;;;6.80;99.90;;;;;;12466680;28;20060;-36
2024/02/13 22:09:37;;;;;;;26.50;25.10;;;6.80;99.90;;;;;;12451921;28;20042;-36
2024/02/13 22:15:40;;;;;;;25.88;24.48;;;6.80;99.90;;;;;;12452085;28;20179;-36
2024/02/13 22:21:42;;;;;;;26.55;24.92;;;6.80;99.90;;;;;;12471802;28;20520;-35
2024/02/13 22:27:44;;;;;;;25.63;24.13;;;6.80;99.90;;;;;;12434145;28;20038;-36
2024/02/13 22:33:48;;;;;;;27.88;26.25;;;6.80;99.90;;;;;;12457012;28;20578;-36
2024/02/13 22:39:50;;;;;;;29.10;27.38;;;6.80;99.90;;;;;;12444932;28;20057;-36
2024/02/13 22:45:52;;;;;;;29.48;27.88;;;6.70;99.90;;;;;;12466137;28;20084;-36
2024/02/13 22:51:54;;;;;;;29.90;28.05;;;6.60;99.90;;;;;;12487438;28;20081;-36
2024/02/13 22:57:59;;;;;;;28.27;26.58;;;6.60;99.90;;;;;;12483703;28;20054;-36
2024/02/13 23:04:03;;;;;;;26.42;24.63;;;6.50;99.90;;;;;;12470457;28;20514;-36
2024/02/13 23:10:07;;;;;;;26.75;25.15;;;6.50;99.90;;;;;;12459633;28;20107;-35
2024/02/13 23:16:10;;;;;;;24.58;23.23;;;6.40;99.90;;;;;;12443951;28;20100;-36
2024/02/13 23:22:13;;;;;;;27.25;25.52;;;6.40;99.90;;;;;;12483839;28;20062;-35
2024/02/13 23:28:16;;;;;;;27.15;25.50;;;6.30;99.90;;;;;;12464572;28;20161;-36
2024/02/13 23:34:18;;;;;;;28.35;26.38;;;6.20;99.90;;;;;;12444841;28;20494;-36
2024/02/13 23:40:20;;;;;;;26.58;25.13;;;6.20;99.90;;;;;;12465690;28;20541;-36
2024/02/13 23:46:22;;;;;;;26.75;25.08;;;6.20;99.90;;;;;;12482835;28;20049;-36
2024/02/13 23:52:24;;;;;;;27.58;25.92;;;6.20;99.90;;;;;;12461684;28;20107;-35
2024/02/13 23:58:26;;;;;;;25.52;24.00;;;6.30;99.90;;;;;;12457530;28;20064;-35
